createdAt,value
2022-11-12T00:00:17.822Z,5.41
2022-11-12T00:01:40.901Z,5.40
2022-11-12T00:03:01.747Z,5.37
2022-11-12T00:04:22.447Z,5.32
2022-11-12T00:05:45.245Z,5.27
2022-11-12T00:07:11.134Z,5.29
2022-11-12T00:08:32.750Z,5.30
2022-11-12T00:09:53.427Z,5.32
2022-11-12T00:11:13.980Z,5.34
2022-11-12T00:12:37.540Z,5.33
2022-11-12T00:13:58.785Z,5.31
2022-11-12T00:15:19.871Z,5.30
2022-11-12T00:16:40.334Z,5.35
2022-11-12T00:18:01.138Z,5.38
2022-11-12T00:19:21.451Z,5.41
2022-11-12T00:20:42.198Z,5.43
2022-11-12T00:22:02.772Z,5.43
2022-11-12T00:23:23.289Z,5.48
2022-11-12T00:24:43.786Z,5.51
2022-11-12T00:26:04.944Z,5.58
2022-11-12T00:27:26.047Z,5.64
2022-11-12T00:28:47.288Z,5.71
2022-11-12T00:30:12.700Z,5.75
2022-11-12T00:31:34.197Z,5.80
2022-11-12T00:32:54.540Z,5.82
2022-11-12T00:34:15.334Z,5.88
2022-11-12T00:35:36.153Z,5.85
2022-11-12T00:36:56.774Z,5.91
2022-11-12T00:38:16.936Z,5.88
2022-11-12T00:39:39.464Z,5.84
2022-11-12T00:41:00.476Z,5.80
2022-11-12T00:42:20.890Z,5.75
2022-11-12T00:43:41.441Z,5.74
2022-11-12T00:45:02.203Z,5.81
2022-11-12T00:46:22.872Z,5.76
2022-11-12T00:47:43.414Z,5.75
2022-11-12T00:49:03.975Z,5.76
2022-11-12T00:50:27.104Z,5.75
2022-11-12T00:51:47.972Z,5.79
2022-11-12T00:53:08.589Z,5.73
2022-11-12T00:54:29.260Z,5.73
2022-11-12T00:55:50.471Z,5.71
2022-11-12T00:57:10.908Z,5.67
2022-11-12T00:58:34.499Z,5.69
2022-11-12T00:59:55.068Z,5.68
2022-11-12T01:01:16.253Z,5.69
2022-11-12T01:02:42.474Z,5.67
2022-11-12T01:04:00.219Z,5.70
2022-11-12T01:05:21.295Z,5.70
2022-11-12T01:06:42.177Z,5.65
2022-11-12T01:08:02.976Z,5.64
2022-11-12T01:09:23.539Z,5.75
2022-11-12T01:10:43.953Z,5.82
2022-11-12T01:12:04.734Z,5.77
2022-11-12T01:13:25.450Z,5.72
2022-11-12T01:14:46.083Z,5.74
2022-11-12T01:17:18.731Z,5.79
2022-11-12T01:18:39.646Z,5.64
2022-11-12T01:20:00.128Z,5.60
2022-11-12T01:21:22.984Z,5.60
2022-11-12T01:22:43.510Z,5.58
2022-11-12T01:24:04.665Z,5.62
2022-11-12T01:25:25.136Z,5.60
2022-11-12T01:26:47.174Z,5.59
2022-11-12T01:28:07.530Z,5.59
2022-11-12T01:29:28.023Z,5.64
2022-11-12T01:30:48.602Z,5.70
2022-11-12T01:32:09.447Z,5.80
2022-11-12T01:33:30.057Z,5.78
2022-11-12T01:34:50.750Z,5.84
2022-11-12T01:36:14.568Z,5.92
2022-11-12T01:37:34.997Z,5.87
2022-11-12T01:38:55.852Z,5.83
2022-11-12T01:40:17.813Z,5.78
2022-11-12T01:41:40.386Z,5.84
2022-11-12T01:43:00.777Z,5.87
2022-11-12T01:44:24.680Z,5.91
2022-11-12T01:45:48.155Z,5.94
2022-11-12T01:47:30.200Z,5.99
2022-11-12T01:48:56.913Z,6.06
2022-11-12T01:50:29.798Z,5.99
2022-11-12T01:51:53.869Z,6.05
2022-11-12T01:53:14.536Z,5.99
2022-11-12T01:54:35.708Z,5.96
2022-11-12T01:55:58.171Z,5.97
2022-11-12T01:57:22.648Z,5.89
2022-11-12T01:58:46.029Z,5.94
2022-11-12T02:00:11.583Z,6.02
2022-11-12T02:01:32.671Z,5.92
2022-11-12T02:02:57.471Z,5.96
2022-11-12T02:04:19.226Z,6.00
2022-11-12T02:05:41.646Z,5.92
2022-11-12T02:07:02.955Z,5.93
2022-11-12T02:08:26.598Z,5.89
2022-11-12T02:09:47.190Z,5.87
2022-11-12T02:11:16.714Z,5.83
2022-11-12T02:12:38.011Z,5.79
2022-11-12T02:13:58.634Z,5.85
2022-11-12T02:15:18.908Z,5.76
2022-11-12T02:16:42.502Z,5.75
2022-11-12T02:18:04.172Z,5.71
2022-11-12T02:19:24.641Z,5.69
2022-11-12T02:20:46.860Z,5.67
2022-11-12T02:22:06.951Z,5.64
2022-11-12T02:23:27.425Z,5.68
2022-11-12T02:24:48.031Z,5.64
2022-11-12T02:26:09.071Z,5.63
2022-11-12T02:27:29.791Z,5.55
2022-11-12T02:28:50.979Z,5.56
2022-11-12T02:30:12.525Z,5.52
2022-11-12T02:31:33.148Z,5.52
2022-11-12T02:32:53.727Z,5.52
2022-11-12T02:34:14.289Z,5.60
2022-11-12T02:35:36.489Z,5.64
2022-11-12T02:36:59.371Z,5.69
2022-11-12T02:38:19.998Z,5.68
2022-11-12T02:39:40.250Z,5.60
2022-11-12T02:41:00.731Z,5.52
2022-11-12T02:42:20.957Z,5.60
2022-11-12T02:43:41.461Z,5.57
2022-11-12T02:45:01.986Z,5.45
2022-11-12T02:47:52.965Z,5.41
2022-11-12T02:49:13.913Z,5.39
2022-11-12T02:50:36.299Z,5.44
2022-11-12T02:51:56.893Z,5.44
2022-11-12T02:53:17.299Z,5.44
2022-11-12T02:54:37.807Z,5.48
2022-11-12T02:55:59.613Z,5.44
2022-11-12T02:57:19.966Z,5.38
2022-11-12T02:58:40.748Z,5.38
2022-11-12T03:00:03.589Z,5.40
2022-11-12T03:01:24.125Z,5.39
2022-11-12T03:02:44.796Z,5.44
2022-11-12T03:04:05.317Z,5.41
2022-11-12T03:05:28.376Z,5.39
2022-11-12T03:06:48.523Z,5.37
2022-11-12T03:08:09.373Z,5.38
2022-11-12T03:09:29.786Z,5.38
2022-11-12T03:10:50.892Z,5.46
2022-11-12T03:12:11.150Z,5.51
2022-11-12T03:13:31.437Z,5.59
2022-11-12T03:14:51.994Z,5.63
2022-11-12T03:16:13.056Z,5.56
2022-11-12T03:17:34.198Z,5.51
2022-11-12T03:18:56.080Z,5.57
2022-11-12T03:20:17.013Z,5.57
2022-11-12T03:21:37.790Z,5.63
2022-11-12T03:23:03.464Z,5.74
2022-11-12T03:24:24.713Z,5.96
2022-11-12T03:25:46.242Z,6.33
2022-11-12T03:27:06.707Z,6.45
2022-11-12T03:28:28.090Z,6.49
2022-11-12T03:29:48.735Z,6.53
2022-11-12T03:31:09.166Z,6.85
2022-11-12T03:32:29.838Z,6.76
2022-11-12T03:33:50.922Z,6.75
2022-11-12T03:35:19.361Z,6.81
2022-11-12T03:36:40.425Z,6.74
2022-11-12T03:38:01.682Z,6.31
2022-11-12T03:39:22.709Z,6.27
2022-11-12T03:40:43.458Z,6.13
2022-11-12T03:42:07.512Z,5.90
2022-11-12T03:43:28.732Z,5.74
2022-11-12T03:44:49.422Z,5.67
2022-11-12T03:46:13.278Z,5.66
2022-11-12T03:47:34.528Z,5.65
2022-11-12T03:48:55.210Z,5.53
2022-11-12T03:50:18.982Z,5.41
2022-11-12T03:51:41.595Z,5.37
2022-11-12T03:53:03.326Z,5.37
2022-11-12T03:54:24.607Z,5.43
2022-11-12T03:55:44.897Z,5.47
2022-11-12T03:57:09.104Z,5.41
2022-11-12T03:58:29.793Z,5.40
2022-11-12T03:59:50.091Z,5.33
2022-11-12T04:01:10.762Z,5.38
2022-11-12T04:02:32.462Z,5.43
2022-11-12T04:03:52.562Z,5.48
2022-11-12T04:05:15.103Z,5.53
2022-11-12T04:06:35.574Z,5.59
2022-11-12T04:08:00.387Z,5.76
2022-11-12T04:09:21.757Z,5.70
2022-11-12T04:10:44.132Z,5.84
2022-11-12T04:12:04.716Z,5.85
2022-11-12T04:13:25.535Z,5.90
2022-11-12T04:14:47.065Z,6.01
2022-11-12T04:16:19.457Z,6.07
2022-11-12T04:17:42.438Z,6.23
2022-11-12T04:19:08.782Z,6.05
2022-11-12T04:20:29.616Z,5.84
2022-11-12T04:21:57.617Z,5.77
2022-11-12T04:23:18.046Z,5.70
2022-11-12T04:24:40.543Z,5.58
2022-11-12T04:26:00.909Z,5.56
2022-11-12T04:27:27.293Z,5.51
2022-11-12T04:28:47.568Z,5.49
2022-11-12T04:30:09.444Z,5.47
2022-11-12T04:31:30.426Z,5.48
2022-11-12T04:32:53.830Z,5.53
2022-11-12T04:34:14.496Z,5.49
2022-11-12T04:35:35.320Z,5.49
2022-11-12T04:36:56.638Z,5.54
2022-11-12T04:38:19.996Z,5.52
2022-11-12T04:39:41.366Z,5.59
2022-11-12T04:41:05.287Z,5.55
2022-11-12T04:42:28.224Z,5.59
2022-11-12T04:43:48.864Z,5.65
2022-11-12T04:45:10.530Z,5.70
2022-11-12T04:46:30.610Z,5.55
2022-11-12T04:47:51.337Z,5.56
2022-11-12T04:49:15.651Z,5.54
2022-11-12T04:50:37.894Z,5.65
2022-11-12T04:51:59.313Z,5.60
2022-11-12T04:53:20.584Z,5.40
2022-11-12T04:54:40.871Z,5.38
2022-11-12T04:56:01.358Z,5.43
2022-11-12T04:57:23.194Z,5.47
2022-11-12T04:58:45.334Z,5.42
2022-11-12T05:00:07.466Z,5.48
2022-11-12T05:01:27.898Z,5.52
2022-11-12T05:02:51.320Z,5.56
2022-11-12T05:04:11.577Z,5.63
2022-11-12T05:05:34.122Z,5.66
2022-11-12T05:06:58.166Z,5.68
2022-11-12T05:08:19.579Z,5.69
2022-11-12T05:09:40.647Z,5.76
2022-11-12T05:11:00.806Z,5.77
2022-11-12T05:12:21.523Z,5.85
2022-11-12T05:13:42.036Z,5.88
2022-11-12T05:15:03.754Z,5.77
2022-11-12T05:16:24.245Z,5.79
2022-11-12T05:17:45.014Z,5.73
2022-11-12T05:19:07.264Z,5.74
2022-11-12T05:20:28.120Z,5.74
2022-11-12T05:21:48.396Z,5.83
2022-11-12T05:23:08.962Z,5.87
2022-11-12T05:24:41.711Z,5.95
2022-11-12T05:25:52.761Z,5.95
2022-11-12T05:27:16.035Z,6.02
2022-11-12T05:28:36.575Z,6.04
2022-11-12T05:29:56.905Z,5.94
2022-11-12T05:31:17.778Z,5.89
2022-11-12T05:32:37.962Z,5.86
2022-11-12T05:33:59.194Z,5.90
2022-11-12T05:35:19.367Z,5.87
2022-11-12T05:36:40.027Z,5.87
2022-11-12T05:38:00.311Z,5.86
2022-11-12T05:39:20.842Z,5.87
2022-11-12T05:40:44.052Z,5.89
2022-11-12T05:42:13.870Z,5.87
2022-11-12T05:43:27.753Z,5.91
2022-11-12T05:44:48.591Z,5.91
2022-11-12T05:46:14.060Z,5.91
2022-11-12T05:47:41.052Z,5.92
2022-11-12T05:49:04.951Z,6.01
2022-11-12T05:50:34.911Z,5.98
2022-11-12T05:51:54.986Z,6.07
2022-11-12T05:53:17.871Z,6.20
2022-11-12T05:54:40.875Z,6.23
2022-11-12T05:56:04.326Z,6.29
2022-11-12T05:57:27.098Z,6.30
2022-11-12T05:58:47.538Z,6.30
2022-11-12T06:00:10.945Z,6.45
2022-11-12T06:01:35.376Z,6.35
2022-11-12T06:02:59.321Z,6.39
2022-11-12T06:04:20.441Z,6.37
2022-11-12T06:05:41.053Z,6.36
2022-11-12T06:07:07.582Z,6.33
2022-11-12T06:08:34.040Z,6.37
2022-11-12T06:09:56.359Z,6.43
2022-11-12T06:11:18.028Z,6.43
2022-11-12T06:12:38.579Z,6.40
2022-11-12T06:13:59.550Z,6.41
2022-11-12T06:15:20.810Z,6.42
2022-11-12T06:16:42.002Z,6.37
2022-11-12T06:18:02.933Z,6.26
2022-11-12T06:19:23.758Z,6.30
2022-11-12T06:20:44.447Z,6.38
2022-11-12T06:22:05.761Z,6.38
2022-11-12T06:23:26.521Z,6.32
2022-11-12T06:24:47.627Z,6.34
2022-11-12T06:26:11.598Z,6.38
2022-11-12T06:27:32.526Z,6.51
2022-11-12T06:28:53.697Z,6.51
2022-11-12T06:30:14.679Z,6.55
2022-11-12T06:31:36.076Z,6.51
2022-11-12T06:32:57.055Z,6.51
2022-11-12T10:28:05.019Z,11.40
2022-11-12T10:31:05.866Z,11.27
2022-11-12T10:36:33.954Z,11.46
2022-11-12T10:38:03.713Z,11.39
2022-11-12T10:39:39.975Z,11.25
2022-11-12T10:41:08.158Z,11.26
2022-11-12T10:42:26.626Z,11.30
2022-11-12T10:44:04.446Z,11.43
2022-11-12T10:45:26.123Z,11.47
2022-11-12T10:46:46.767Z,11.43
2022-11-12T10:48:27.031Z,11.46
2022-11-12T10:50:05.384Z,11.60
2022-11-12T10:51:35.435Z,11.64
2022-11-12T10:53:02.357Z,11.67
2022-11-12T10:54:31.757Z,11.66
2022-11-12T10:57:23.244Z,11.48
2022-11-12T10:58:43.511Z,11.33
2022-11-12T11:00:13.545Z,11.29
2022-11-12T11:01:35.937Z,11.29
2022-11-12T11:02:58.853Z,11.26
2022-11-12T11:04:28.989Z,11.30
2022-11-12T11:06:08.498Z,11.22
2022-11-12T11:07:29.124Z,11.12
2022-11-12T11:08:52.276Z,10.98
2022-11-12T11:10:25.628Z,11.01
2022-11-12T11:11:53.628Z,10.99
2022-11-12T11:13:23.914Z,11.11
2022-11-12T11:14:44.298Z,11.14
2022-11-12T11:16:08.852Z,12.12
2022-11-12T11:17:29.723Z,13.22
2022-11-12T11:18:54.162Z,13.44
2022-11-12T11:20:30.516Z,13.09
2022-11-12T11:21:54.344Z,13.64
2022-11-12T11:23:25.190Z,13.21
2022-11-12T11:25:02.280Z,13.45
2022-11-12T11:26:47.328Z,12.77
2022-11-12T11:28:27.156Z,12.94
2022-11-12T11:29:57.582Z,12.74
2022-11-12T11:31:30.451Z,13.10
2022-11-12T11:33:03.443Z,12.66
2022-11-12T11:36:05.154Z,13.69
2022-11-12T11:37:28.907Z,13.35
2022-11-12T11:39:05.137Z,12.75
2022-11-12T11:40:29.265Z,13.84
2022-11-12T11:42:11.549Z,14.16
2022-11-12T11:44:13.788Z,13.76
2022-11-12T11:45:46.982Z,14.14
2022-11-12T11:47:44.147Z,13.32
2022-11-12T11:49:02.669Z,12.85
2022-11-12T11:52:44.054Z,12.37
2022-11-12T11:54:33.656Z,12.23
2022-11-12T11:56:03.578Z,12.07
2022-11-12T11:57:38.948Z,11.98
2022-11-12T11:59:09.217Z,11.84
2022-11-12T12:00:51.674Z,11.80
2022-11-12T12:02:32.643Z,11.66
2022-11-12T12:03:59.644Z,11.79
2022-11-12T12:05:43.301Z,12.00
2022-11-12T12:07:07.468Z,12.03
2022-11-12T12:08:37.530Z,12.11
2022-11-12T12:10:09.342Z,12.00
2022-11-12T12:11:39.945Z,11.91
2022-11-12T12:13:04.174Z,11.72
2022-11-12T12:14:45.292Z,11.53
2022-11-12T12:16:21.623Z,11.49
2022-11-12T12:17:48.158Z,11.47
2022-11-12T12:19:21.998Z,11.32
2022-11-12T12:21:04.520Z,11.30
2022-11-12T12:22:38.287Z,11.24
2022-11-12T12:24:04.677Z,11.24
2022-11-12T12:25:31.497Z,11.27
2022-11-12T12:26:55.407Z,11.28
2022-11-12T12:28:36.337Z,11.29
2022-11-12T12:30:03.441Z,11.26
2022-11-12T12:31:31.067Z,11.21
2022-11-12T12:33:01.125Z,11.15
2022-11-12T12:34:31.358Z,11.19
2022-11-12T12:36:02.019Z,11.26
2022-11-12T12:37:47.480Z,11.28
2022-11-12T12:39:20.237Z,11.17
2022-11-12T12:40:49.706Z,11.20
2022-11-12T12:42:20.415Z,11.16
2022-11-12T12:43:50.484Z,11.13
2022-11-12T12:45:21.553Z,11.10
2022-11-12T12:46:48.279Z,11.11
2022-11-12T12:48:15.166Z,11.13
2022-11-12T12:49:37.262Z,11.11
2022-11-12T12:50:58.030Z,11.09
2022-11-12T12:52:18.271Z,11.06
2022-11-12T12:53:38.967Z,11.06
2022-11-12T12:54:59.425Z,11.03
2022-11-12T12:56:27.111Z,11.05
2022-11-12T12:57:48.348Z,11.08
2022-11-12T12:59:21.759Z,11.06
2022-11-12T13:00:51.567Z,11.03
2022-11-12T13:02:21.729Z,11.05
2022-11-12T13:03:54.825Z,11.13
2022-11-12T13:05:28.409Z,11.18
2022-11-12T13:06:55.028Z,11.09
2022-11-12T13:08:26.567Z,11.03
2022-11-12T13:09:57.381Z,10.97
2022-11-12T13:11:42.812Z,10.97
2022-11-12T13:13:07.316Z,10.95
2022-11-12T13:14:37.721Z,11.05
2022-11-12T13:15:59.919Z,11.01
2022-11-12T13:17:43.720Z,11.01
2022-11-12T13:19:04.745Z,10.96
2022-11-12T13:20:35.364Z,10.93
2022-11-12T13:22:19.684Z,10.94
2022-11-12T13:25:14.676Z,11.01
2022-11-12T13:26:47.641Z,10.92
2022-11-12T13:28:09.607Z,10.84
2022-11-12T13:29:34.091Z,10.86
2022-11-12T13:30:57.190Z,10.83
2022-11-12T13:32:30.177Z,10.84
2022-11-12T13:33:50.744Z,10.89
2022-11-12T13:35:18.041Z,10.95
2022-11-12T13:36:39.774Z,10.87
2022-11-12T13:38:14.034Z,10.86
2022-11-12T13:39:35.375Z,10.85
2022-11-12T13:40:59.475Z,10.82
2022-11-12T13:42:20.168Z,10.81
2022-11-12T13:43:46.585Z,10.83
2022-11-12T13:45:10.074Z,10.88
2022-11-12T13:46:32.808Z,10.82
2022-11-12T13:47:54.921Z,10.81
2022-11-12T13:49:16.974Z,10.82
2022-11-12T13:50:40.962Z,10.75
2022-11-12T13:52:03.715Z,10.80
2022-11-12T13:53:27.323Z,10.78
2022-11-12T13:54:52.126Z,10.78
2022-11-12T13:56:25.446Z,10.82
2022-11-12T13:57:50.548Z,10.82
2022-11-12T13:59:15.752Z,10.82
2022-11-12T14:00:37.634Z,10.79
2022-11-12T14:02:01.861Z,10.81
2022-11-12T14:03:26.281Z,10.78
2022-11-12T14:04:46.872Z,10.77
2022-11-12T14:06:20.765Z,10.81
2022-11-12T14:08:03.129Z,10.74
2022-11-12T14:09:27.420Z,10.70
2022-11-12T14:11:03.706Z,10.69
2022-11-12T14:12:38.223Z,10.68
2022-11-12T14:14:19.293Z,10.67
2022-11-12T14:15:52.113Z,10.64
2022-11-12T14:17:25.317Z,10.64
2022-11-12T14:19:13.629Z,10.64
2022-11-12T14:20:39.342Z,10.64
2022-11-12T14:22:03.653Z,10.56
2022-11-12T14:23:26.028Z,10.58
2022-11-12T14:24:50.593Z,10.58
2022-11-12T14:26:12.642Z,10.58
2022-11-12T14:27:35.289Z,10.55
2022-11-12T14:28:58.474Z,10.55
2022-11-12T14:30:24.969Z,10.54
2022-11-12T14:31:46.171Z,10.54
2022-11-12T14:33:10.955Z,10.55
2022-11-12T14:34:33.459Z,10.51
2022-11-12T18:05:59.195Z,9.50
2022-11-12T18:07:20.874Z,9.53
2022-11-12T18:08:43.984Z,9.49
2022-11-12T18:10:05.707Z,9.50
2022-11-12T18:11:28.624Z,9.54
2022-11-12T18:12:52.298Z,9.56
2022-11-12T18:14:12.716Z,9.78
2022-11-12T18:15:33.089Z,9.79
2022-11-12T18:16:53.832Z,9.65
2022-11-12T18:18:14.413Z,9.83
2022-11-12T18:19:37.460Z,9.79
2022-11-12T18:20:58.108Z,9.83
2022-11-12T18:22:18.814Z,9.71
2022-11-12T18:23:41.237Z,9.79
2022-11-12T18:25:01.991Z,9.88
2022-11-12T18:26:22.944Z,9.83
2022-11-12T18:27:43.551Z,9.69
2022-11-12T18:29:04.383Z,9.67
2022-11-12T18:30:25.587Z,10.09
2022-11-12T18:31:49.628Z,10.04
2022-11-12T18:33:11.373Z,10.04
2022-11-12T18:34:32.742Z,9.86
2022-11-12T18:36:03.677Z,9.71
2022-11-12T18:37:26.904Z,9.79
2022-11-12T18:38:50.668Z,9.66
2022-11-12T18:40:13.462Z,9.58
2022-11-12T18:41:33.780Z,9.52
2022-11-12T18:42:55.028Z,9.47
2022-11-12T18:44:16.841Z,9.52
2022-11-12T18:45:37.084Z,9.53
2022-11-12T18:46:57.513Z,9.47
2022-11-12T18:48:18.498Z,9.50
2022-11-12T18:49:39.084Z,9.46
2022-11-12T18:51:06.802Z,9.41
2022-11-12T18:52:27.953Z,9.40
2022-11-12T18:53:49.432Z,9.43
2022-11-12T18:55:12.383Z,9.43
2022-11-12T18:56:32.573Z,9.39
2022-11-12T18:57:53.744Z,9.37
2022-11-12T18:59:18.716Z,9.35
2022-11-12T19:00:39.350Z,9.35
2022-11-12T19:01:59.897Z,9.37
2022-11-12T19:03:20.899Z,9.39
2022-11-12T19:04:45.631Z,9.37
2022-11-12T19:06:14.951Z,9.27
2022-11-12T19:07:33.434Z,9.31
2022-11-12T19:09:00.422Z,9.34
2022-11-12T19:10:26.591Z,9.22
2022-11-12T19:11:46.884Z,9.24
2022-11-12T19:13:08.435Z,9.22
2022-11-12T19:14:29.993Z,9.23
2022-11-12T19:15:50.693Z,9.15
2022-11-12T19:17:12.291Z,9.17
2022-11-12T19:18:33.697Z,9.26
2022-11-12T19:19:54.210Z,9.23
2022-11-12T19:21:23.242Z,9.27
2022-11-12T19:22:44.423Z,9.31
2022-11-12T19:24:05.944Z,9.26
2022-11-12T19:25:27.144Z,9.22
2022-11-12T19:26:47.470Z,9.25
2022-11-12T19:28:07.770Z,9.24
2022-11-12T19:29:28.687Z,9.20
2022-11-12T19:30:49.813Z,9.24
2022-11-12T19:32:11.296Z,9.27
2022-11-12T19:33:32.858Z,9.31
2022-11-12T19:34:53.249Z,9.23
2022-11-12T19:36:19.650Z,9.16
2022-11-12T19:37:39.696Z,9.15
2022-11-12T19:39:00.319Z,9.17
2022-11-12T19:40:20.793Z,9.18
2022-11-12T19:41:41.855Z,9.20
2022-11-12T19:43:02.377Z,9.20
2022-11-12T19:44:22.820Z,9.23
2022-11-12T19:45:43.336Z,9.22
2022-11-12T19:47:04.802Z,9.24
2022-11-12T19:48:26.734Z,9.22
2022-11-12T19:49:47.731Z,9.24
2022-11-12T19:51:11.455Z,9.24
2022-11-12T19:52:31.696Z,9.22
2022-11-12T19:53:52.381Z,9.19
2022-11-12T19:55:14.263Z,9.39
2022-11-12T19:56:34.808Z,9.61
2022-11-12T19:57:56.346Z,9.72
2022-11-12T19:59:18.271Z,9.53
2022-11-12T20:00:39.462Z,9.62
2022-11-12T20:02:00.807Z,9.55
2022-11-12T20:03:21.283Z,9.86
2022-11-12T20:04:42.254Z,9.59
2022-11-12T20:06:18.062Z,9.62
2022-11-12T20:07:41.139Z,9.42
2022-11-12T20:09:05.000Z,9.65
2022-11-12T20:10:28.016Z,9.45
2022-11-12T20:11:50.115Z,9.42
2022-11-12T20:13:11.131Z,9.62
2022-11-12T20:14:33.167Z,9.46
2022-11-12T20:15:57.425Z,9.83
2022-11-12T20:17:18.906Z,9.98
2022-11-12T20:18:40.548Z,10.06
2022-11-12T20:20:22.532Z,9.91
2022-11-12T20:21:45.549Z,9.86
2022-11-12T20:23:06.169Z,9.79
2022-11-12T20:24:27.087Z,9.75
2022-11-12T20:25:47.648Z,9.69
2022-11-12T20:27:10.393Z,9.49
2022-11-12T20:28:34.375Z,9.50
2022-11-12T20:29:54.696Z,9.51
2022-11-12T20:31:20.036Z,9.61
2022-11-12T20:32:40.980Z,9.53
2022-11-12T20:34:01.674Z,9.45
2022-11-12T20:35:23.631Z,9.46
2022-11-12T20:36:44.958Z,9.67
2022-11-12T20:38:05.384Z,9.63
2022-11-12T20:39:26.186Z,9.59
2022-11-12T20:40:46.530Z,9.69
2022-11-12T20:42:07.490Z,9.55
2022-11-12T20:43:29.343Z,9.54
2022-11-12T20:44:49.715Z,9.55
2022-11-12T20:46:14.140Z,9.57
2022-11-12T20:47:38.325Z,9.54
2022-11-12T20:49:01.000Z,9.56
2022-11-12T20:50:22.877Z,9.57
2022-11-12T20:51:44.353Z,9.64
2022-11-12T20:53:05.126Z,9.59
2022-11-12T20:54:25.691Z,9.61
2022-11-12T20:55:46.806Z,9.65
2022-11-12T20:57:07.534Z,9.62
2022-11-12T20:58:29.571Z,9.63
2022-11-12T20:59:55.802Z,9.56
2022-11-12T21:01:19.110Z,9.49
2022-11-12T21:02:41.583Z,9.49
2022-11-12T21:04:03.353Z,9.51
2022-11-12T21:05:24.361Z,9.46
2022-11-12T21:06:45.265Z,9.41
2022-11-12T21:08:06.280Z,9.43
2022-11-12T21:09:27.127Z,9.46
2022-11-12T21:10:49.085Z,9.76
2022-11-12T21:12:09.796Z,9.84
2022-11-12T21:13:30.482Z,9.75
2022-11-12T21:14:52.941Z,9.75
2022-11-12T21:16:15.077Z,9.73
2022-11-12T21:17:35.630Z,9.72
2022-11-12T21:19:02.030Z,9.77
2022-11-12T21:20:25.648Z,9.81
2022-11-12T21:21:46.227Z,9.67
2022-11-12T21:23:07.122Z,9.69
2022-11-12T21:24:28.664Z,9.69
2022-11-12T21:25:49.919Z,9.61
2022-11-12T21:27:10.366Z,9.77
2022-11-12T21:28:36.448Z,9.67
2022-11-12T21:30:04.011Z,9.65
2022-11-12T21:31:28.382Z,9.53
2022-11-12T21:32:49.231Z,9.49
2022-11-12T21:34:10.093Z,9.42
2022-11-12T21:35:30.267Z,9.35
2022-11-12T21:36:51.315Z,9.39
2022-11-12T21:38:11.663Z,9.45
2022-11-12T21:39:33.210Z,9.48
2022-11-12T21:41:11.509Z,9.65
2022-11-12T21:42:31.740Z,9.58
2022-11-12T21:43:52.811Z,9.72
2022-11-12T21:45:13.361Z,9.82
2022-11-12T21:46:33.865Z,10.10
2022-11-12T21:47:54.851Z,10.12
2022-11-12T21:49:16.006Z,9.86
2022-11-12T21:50:38.120Z,9.68
2022-11-12T21:51:58.735Z,9.56
2022-11-12T21:53:20.511Z,9.52
2022-11-12T21:54:41.180Z,9.45
2022-11-12T21:56:08.224Z,9.74
2022-11-12T21:57:29.091Z,9.69
2022-11-12T21:58:49.616Z,9.65
2022-11-12T22:00:40.285Z,9.51
2022-11-12T22:01:35.478Z,9.49
2022-11-12T22:02:57.127Z,9.43
2022-11-12T22:04:18.556Z,9.57
2022-11-12T22:05:39.198Z,9.61
2022-11-12T22:06:59.890Z,9.63
2022-11-12T22:08:20.778Z,9.61
2022-11-12T22:09:40.817Z,9.53
2022-11-12T22:11:06.651Z,9.47
2022-11-12T22:12:27.868Z,9.40
2022-11-12T22:13:48.490Z,9.35
2022-11-12T22:15:09.535Z,9.53
2022-11-12T22:16:29.998Z,9.46
2022-11-12T22:17:50.465Z,9.51
2022-11-12T22:19:11.369Z,9.52
2022-11-12T22:20:32.499Z,9.32
2022-11-12T22:21:52.969Z,9.43
2022-11-12T22:23:13.629Z,9.36
2022-11-12T22:24:33.867Z,9.36
2022-11-12T22:25:58.340Z,9.40
2022-11-12T22:27:18.636Z,9.47
2022-11-12T22:28:39.889Z,9.41
2022-11-12T22:30:01.367Z,9.45
2022-11-12T22:31:27.896Z,9.55
2022-11-12T22:32:48.374Z,9.40
2022-11-12T22:34:08.878Z,9.27
2022-11-12T22:35:29.408Z,9.41
2022-11-12T22:36:49.805Z,9.38
2022-11-12T22:38:11.094Z,9.40
2022-11-12T22:39:31.299Z,9.28
2022-11-12T22:40:52.023Z,9.31
2022-11-12T22:42:13.081Z,9.34
2022-11-12T22:43:33.811Z,9.34
2022-11-12T22:44:54.088Z,9.33
2022-11-12T22:46:17.801Z,9.29
2022-11-12T22:47:38.343Z,9.25
2022-11-12T22:48:59.622Z,9.16
2022-11-12T22:50:20.251Z,9.18
2022-11-12T22:51:40.511Z,9.05
2022-11-12T22:53:00.841Z,8.95
2022-11-12T22:54:20.938Z,8.87
2022-11-12T22:55:41.474Z,8.82
2022-11-12T22:57:02.269Z,8.77
2022-11-12T22:58:22.739Z,8.75
2022-11-12T22:59:43.404Z,8.75
2022-11-12T23:01:05.942Z,8.78
2022-11-12T23:02:27.325Z,8.76
2022-11-12T23:03:50.940Z,8.73
2022-11-12T23:05:12.565Z,8.66
2022-11-12T23:06:34.460Z,8.66
2022-11-12T23:07:55.610Z,8.67
2022-11-12T23:09:17.400Z,8.69
2022-11-12T23:10:42.952Z,8.70
2022-11-12T23:12:00.455Z,8.66
2022-11-12T23:13:23.267Z,8.69
2022-11-12T23:14:44.056Z,8.73
2022-11-12T23:16:11.470Z,8.76
2022-11-12T23:17:31.800Z,8.77
2022-11-12T23:18:52.840Z,8.76
2022-11-12T23:20:13.532Z,8.77
2022-11-12T23:21:34.000Z,8.74
2022-11-12T23:22:55.166Z,8.68
2022-11-12T23:24:15.928Z,8.74
2022-11-12T23:25:36.472Z,8.66
2022-11-12T23:26:56.989Z,8.68
2022-11-12T23:28:17.455Z,8.65
2022-11-12T23:29:38.392Z,8.67
2022-11-12T23:30:59.495Z,8.70
2022-11-12T23:32:20.125Z,8.82
2022-11-12T23:33:52.627Z,8.91
2022-11-12T23:35:13.033Z,8.88
2022-11-12T23:36:33.961Z,8.77
2022-11-12T23:37:54.819Z,8.82
2022-11-12T23:39:15.775Z,8.79
2022-11-12T23:40:37.605Z,8.76
2022-11-12T23:41:57.961Z,8.77
2022-11-12T23:43:18.685Z,8.84
2022-11-12T23:44:39.541Z,8.77
2022-11-12T23:46:00.311Z,8.75
2022-11-12T23:47:22.159Z,8.77
2022-11-12T23:48:43.123Z,8.73
2022-11-12T23:50:04.252Z,8.72
2022-11-12T23:51:24.899Z,8.73
2022-11-12T23:52:45.951Z,8.69
2022-11-12T23:54:06.418Z,8.68
2022-11-12T23:55:29.432Z,8.71
2022-11-12T23:56:49.667Z,8.69
2022-11-12T23:58:11.791Z,8.67
2022-11-12T23:59:32.248Z,8.63
